sensor_id;sensor_type;location;lat;lon;timestamp;P1;durP1;ratioP1;P2;durP2;ratioP2
26271;SDS011;13997;48.902;12.472;2022-11-12T00:02:15;77.78;;;12.43;;
26271;SDS011;13997;48.902;12.472;2022-11-12T00:04:40;88.55;;;13.35;;
26271;SDS011;13997;48.902;12.472;2022-11-12T00:07:06;19.92;;;13.00;;
26271;SDS011;13997;48.902;12.472;2022-11-12T00:09:31;23.65;;;12.57;;
26271;SDS011;13997;48.902;12.472;2022-11-12T00:11:57;78.72;;;14.18;;
26271;SDS011;13997;48.902;12.472;2022-11-12T00:14:23;79.45;;;14.18;;
26271;SDS011;13997;48.902;12.472;2022-11-12T00:16:48;18.10;;;12.77;;
26271;SDS011;13997;48.902;12.472;2022-11-12T00:19:26;240.00;;;15.93;;
26271;SDS011;13997;48.902;12.472;2022-11-12T00:39:16;105.03;;;12.90;;
26271;SDS011;13997;48.902;12.472;2022-11-12T00:43:08;18.25;;;12.77;;
26271;SDS011;13997;48.902;12.472;2022-11-12T00:47:00;103.60;;;13.30;;
26271;SDS011;13997;48.902;12.472;2022-11-12T00:50:27;66.77;;;10.87;;
26271;SDS011;13997;48.902;12.472;2022-11-12T00:53:20;190.15;;;11.70;;
26271;SDS011;13997;48.902;12.472;2022-11-12T01:14:23;56.45;;;11.88;;
26271;SDS011;13997;48.902;12.472;2022-11-12T01:17:58;17.50;;;11.68;;
26271;SDS011;13997;48.902;12.472;2022-11-12T01:20:53;18.70;;;12.38;;
26271;SDS011;13997;48.902;12.472;2022-11-12T01:30:21;15.93;;;10.45;;
26271;SDS011;13997;48.902;12.472;2022-11-12T01:43:13;17.25;;;9.65;;
26271;SDS011;13997;48.902;12.472;2022-11-12T01:57:04;12.73;;;8.93;;
26271;SDS011;13997;48.902;12.472;2022-11-12T02:00:23;51.60;;;9.68;;
26271;SDS011;13997;48.902;12.472;2022-11-12T02:03:55;12.95;;;8.75;;
26271;SDS011;13997;48.902;12.472;2022-11-12T02:06:44;28.52;;;9.23;;
26271;SDS011;13997;48.902;12.472;2022-11-12T02:10:19;15.02;;;9.05;;
26271;SDS011;13997;48.902;12.472;2022-11-12T02:17:12;51.20;;;8.45;;
26271;SDS011;13997;48.902;12.472;2022-11-12T02:30:43;40.08;;;7.75;;
26271;SDS011;13997;48.902;12.472;2022-11-12T02:34:05;9.75;;;7.35;;
26271;SDS011;13997;48.902;12.472;2022-11-12T02:36:31;43.47;;;8.18;;
26271;SDS011;13997;48.902;12.472;2022-11-12T02:45:49;9.25;;;6.80;;
26271;SDS011;13997;48.902;12.472;2022-11-12T02:56:24;10.25;;;7.32;;
26271;SDS011;13997;48.902;12.472;2022-11-12T02:58:56;40.50;;;8.00;;
26271;SDS011;13997;48.902;12.472;2022-11-12T03:04:44;101.55;;;9.27;;
26271;SDS011;13997;48.902;12.472;2022-11-12T03:11:06;13.38;;;7.65;;
26271;SDS011;13997;48.902;12.472;2022-11-12T03:24:48;50.20;;;8.10;;
26271;SDS011;13997;48.902;12.472;2022-11-12T03:38:40;12.70;;;9.25;;
26271;SDS011;13997;48.902;12.472;2022-11-12T03:41:57;38.47;;;9.35;;
26271;SDS011;13997;48.902;12.472;2022-11-12T03:44:26;14.10;;;10.00;;
26271;SDS011;13997;48.902;12.472;2022-11-12T03:48:08;48.70;;;10.27;;
26271;SDS011;13997;48.902;12.472;2022-11-12T03:55:07;14.02;;;9.43;;
26271;SDS011;13997;48.902;12.472;2022-11-12T03:58:25;14.43;;;9.13;;
26271;SDS011;13997;48.902;12.472;2022-11-12T04:08:10;15.40;;;9.65;;
26271;SDS011;13997;48.902;12.472;2022-11-12T04:11:32;22.70;;;10.50;;
26271;SDS011;13997;48.902;12.472;2022-11-12T04:13:58;47.90;;;10.63;;
26271;SDS011;13997;48.902;12.472;2022-11-12T04:23:40;56.33;;;10.38;;
26271;SDS011;13997;48.902;12.472;2022-11-12T04:27:05;19.02;;;9.15;;
26271;SDS011;13997;48.902;12.472;2022-11-12T04:40:32;47.55;;;9.32;;
26271;SDS011;13997;48.902;12.472;2022-11-12T04:54:10;12.90;;;8.73;;
26271;SDS011;13997;48.902;12.472;2022-11-12T04:57:56;17.13;;;10.70;;
26271;SDS011;13997;48.902;12.472;2022-11-12T05:21:46;24.80;;;8.18;;
26271;SDS011;13997;48.902;12.472;2022-11-12T05:34:36;15.13;;;7.70;;
26271;SDS011;13997;48.902;12.472;2022-11-12T05:38:00;148.45;;;9.10;;
26271;SDS011;13997;48.902;12.472;2022-11-12T05:50:51;8.63;;;5.88;;
26271;SDS011;13997;48.902;12.472;2022-11-12T05:57:55;8.35;;;6.05;;
26271;SDS011;13997;48.902;12.472;2022-11-12T06:08:30;59.55;;;6.90;;
26271;SDS011;13997;48.902;12.472;2022-11-12T06:12:06;9.32;;;6.70;;
26271;SDS011;13997;48.902;12.472;2022-11-12T06:14:34;9.50;;;6.55;;
26271;SDS011;13997;48.902;12.472;2022-11-12T06:17:15;45.83;;;7.53;;
26271;SDS011;13997;48.902;12.472;2022-11-12T06:20:25;23.70;;;7.95;;
26271;SDS011;13997;48.902;12.472;2022-11-12T06:26:21;69.45;;;27.27;;
26271;SDS011;13997;48.902;12.472;2022-11-12T06:35:55;29.75;;;14.25;;
26271;SDS011;13997;48.902;12.472;2022-11-12T06:39:02;31.45;;;17.27;;
26271;SDS011;13997;48.902;12.472;2022-11-12T06:45:39;15.43;;;9.10;;
26271;SDS011;13997;48.902;12.472;2022-11-12T06:49:31;49.35;;;10.07;;
26271;SDS011;13997;48.902;12.472;2022-11-12T06:59:52;25.50;;;9.02;;
26271;SDS011;13997;48.902;12.472;2022-11-12T07:03:47;19.25;;;10.52;;
26271;SDS011;13997;48.902;12.472;2022-11-12T07:10:08;33.55;;;11.80;;
26271;SDS011;13997;48.902;12.472;2022-11-12T07:13:32;42.25;;;10.48;;
26271;SDS011;13997;48.902;12.472;2022-11-12T07:17:00;26.27;;;14.73;;
26271;SDS011;13997;48.902;12.472;2022-11-12T07:30:29;20.55;;;11.98;;
26271;SDS011;13997;48.902;12.472;2022-11-12T07:43:55;17.08;;;11.88;;
26271;SDS011;13997;48.902;12.472;2022-11-12T08:01:38;24.73;;;10.60;;
26271;SDS011;13997;48.902;12.472;2022-11-12T08:04:38;15.07;;;9.75;;
26271;SDS011;13997;48.902;12.472;2022-11-12T08:15:07;52.35;;;10.75;;
26271;SDS011;13997;48.902;12.472;2022-11-12T08:25:17;51.10;;;9.93;;
26271;SDS011;13997;48.902;12.472;2022-11-12T08:27:43;19.15;;;9.45;;
26271;SDS011;13997;48.902;12.472;2022-11-12T08:30:08;46.10;;;10.38;;
26271;SDS011;13997;48.902;12.472;2022-11-12T08:32:34;37.28;;;10.52;;
26271;SDS011;13997;48.902;12.472;2022-11-12T08:35:00;22.70;;;10.25;;
26271;SDS011;13997;48.902;12.472;2022-11-12T08:37:25;30.00;;;11.18;;
26271;SDS011;13997;48.902;12.472;2022-11-12T08:39:51;15.10;;;9.93;;
26271;SDS011;13997;48.902;12.472;2022-11-12T08:42:17;21.08;;;10.73;;
26271;SDS011;13997;48.902;12.472;2022-11-12T08:44:42;62.33;;;10.88;;
26271;SDS011;13997;48.902;12.472;2022-11-12T08:47:08;23.52;;;11.45;;
26271;SDS011;13997;48.902;12.472;2022-11-12T08:49:34;155.65;;;12.10;;
26271;SDS011;13997;48.902;12.472;2022-11-12T08:51:59;14.10;;;10.77;;
26271;SDS011;13997;48.902;12.472;2022-11-12T08:54:25;44.78;;;11.40;;
26271;SDS011;13997;48.902;12.472;2022-11-12T08:56:50;18.50;;;9.77;;
26271;SDS011;13997;48.902;12.472;2022-11-12T08:59:16;18.30;;;10.73;;
26271;SDS011;13997;48.902;12.472;2022-11-12T09:01:42;39.35;;;13.57;;
26271;SDS011;13997;48.902;12.472;2022-11-12T09:04:07;36.40;;;12.75;;
26271;SDS011;13997;48.902;12.472;2022-11-12T09:06:33;20.65;;;11.18;;
26271;SDS011;13997;48.902;12.472;2022-11-12T09:08:58;16.80;;;10.60;;
26271;SDS011;13997;48.902;12.472;2022-11-12T09:11:24;48.50;;;11.38;;
26271;SDS011;13997;48.902;12.472;2022-11-12T09:13:53;26.48;;;11.27;;
26271;SDS011;13997;48.902;12.472;2022-11-12T09:16:19;15.77;;;10.02;;
26271;SDS011;13997;48.902;12.472;2022-11-12T09:18:48;43.92;;;10.68;;
26271;SDS011;13997;48.902;12.472;2022-11-12T09:21:13;16.38;;;9.57;;
26271;SDS011;13997;48.902;12.472;2022-11-12T09:23:39;30.58;;;9.95;;
26271;SDS011;13997;48.902;12.472;2022-11-12T09:26:05;16.38;;;9.98;;
26271;SDS011;13997;48.902;12.472;2022-11-12T09:28:31;33.55;;;10.45;;
26271;SDS011;13997;48.902;12.472;2022-11-12T09:30:57;33.25;;;11.50;;
26271;SDS011;13997;48.902;12.472;2022-11-12T09:33:24;21.40;;;10.02;;
26271;SDS011;13997;48.902;12.472;2022-11-12T09:35:59;15.48;;;10.23;;
26271;SDS011;13997;48.902;12.472;2022-11-12T09:38:25;50.55;;;12.10;;
26271;SDS011;13997;48.902;12.472;2022-11-12T09:43:19;36.35;;;11.93;;
26271;SDS011;13997;48.902;12.472;2022-11-12T09:45:50;55.00;;;11.32;;
26271;SDS011;13997;48.902;12.472;2022-11-12T09:48:19;33.30;;;11.02;;
26271;SDS011;13997;48.902;12.472;2022-11-12T09:50:56;15.23;;;9.90;;
26271;SDS011;13997;48.902;12.472;2022-11-12T09:53:42;20.70;;;11.27;;
26271;SDS011;13997;48.902;12.472;2022-11-12T09:56:18;24.02;;;11.38;;
26271;SDS011;13997;48.902;12.472;2022-11-12T09:58:48;22.20;;;12.17;;
26271;SDS011;13997;48.902;12.472;2022-11-12T10:01:16;60.88;;;11.57;;
26271;SDS011;13997;48.902;12.472;2022-11-12T10:10:02;51.33;;;10.57;;
26271;SDS011;13997;48.902;12.472;2022-11-12T10:12:38;91.30;;;10.80;;
26271;SDS011;13997;48.902;12.472;2022-11-12T10:15:31;56.72;;;10.73;;
26271;SDS011;13997;48.902;12.472;2022-11-12T10:18:25;43.97;;;9.70;;
26271;SDS011;13997;48.902;12.472;2022-11-12T10:21:39;27.70;;;11.20;;
26271;SDS011;13997;48.902;12.472;2022-11-12T10:23:45;168.00;;;13.95;;
26271;SDS011;13997;48.902;12.472;2022-11-12T10:26:13;25.38;;;11.48;;
26271;SDS011;13997;48.902;12.472;2022-11-12T10:28:42;37.70;;;14.48;;
26271;SDS011;13997;48.902;12.472;2022-11-12T10:31:13;111.00;;;15.73;;
26271;SDS011;13997;48.902;12.472;2022-11-12T10:33:40;27.55;;;13.60;;
26271;SDS011;13997;48.902;12.472;2022-11-12T10:38:53;23.00;;;14.52;;
26271;SDS011;13997;48.902;12.472;2022-11-12T10:41:30;22.05;;;14.63;;
26271;SDS011;13997;48.902;12.472;2022-11-12T10:46:25;25.00;;;12.90;;
26271;SDS011;13997;48.902;12.472;2022-11-12T10:48:57;111.63;;;13.68;;
26271;SDS011;13997;48.902;12.472;2022-11-12T10:54:26;51.50;;;14.15;;
26271;SDS011;13997;48.902;12.472;2022-11-12T11:02:46;29.23;;;13.18;;
26271;SDS011;13997;48.902;12.472;2022-11-12T11:08:00;61.72;;;14.48;;
26271;SDS011;13997;48.902;12.472;2022-11-12T11:10:31;88.13;;;13.90;;
26271;SDS011;13997;48.902;12.472;2022-11-12T11:13:13;116.60;;;15.82;;
26271;SDS011;13997;48.902;12.472;2022-11-12T11:15:58;78.97;;;13.07;;
26271;SDS011;13997;48.902;12.472;2022-11-12T11:18:28;52.25;;;13.27;;
26271;SDS011;13997;48.902;12.472;2022-11-12T11:38:13;177.63;;;13.05;;
26271;SDS011;13997;48.902;12.472;2022-11-12T11:46:15;43.00;;;13.50;;
26271;SDS011;13997;48.902;12.472;2022-11-12T12:00:17;23.92;;;10.60;;
26271;SDS011;13997;48.902;12.472;2022-11-12T12:08:38;35.38;;;10.85;;
26271;SDS011;13997;48.902;12.472;2022-11-12T12:11:33;49.25;;;11.55;;
26271;SDS011;13997;48.902;12.472;2022-11-12T12:17:35;25.98;;;11.45;;
26271;SDS011;13997;48.902;12.472;2022-11-12T12:22:23;35.35;;;11.98;;
26271;SDS011;13997;48.902;12.472;2022-11-12T12:24:58;50.45;;;13.05;;
26271;SDS011;13997;48.902;12.472;2022-11-12T12:27:50;20.80;;;12.23;;
26271;SDS011;13997;48.902;12.472;2022-11-12T12:30:21;43.05;;;14.75;;
26271;SDS011;13997;48.902;12.472;2022-11-12T12:38:00;57.70;;;16.00;;
26271;SDS011;13997;48.902;12.472;2022-11-12T12:40:36;40.65;;;18.25;;
26271;SDS011;13997;48.902;12.472;2022-11-12T12:43:32;63.40;;;16.50;;
26271;SDS011;13997;48.902;12.472;2022-11-12T12:46:02;43.38;;;17.55;;
26271;SDS011;13997;48.902;12.472;2022-11-12T12:48:33;29.80;;;16.40;;
26271;SDS011;13997;48.902;12.472;2022-11-12T12:51:02;43.30;;;17.45;;
26271;SDS011;13997;48.902;12.472;2022-11-12T12:55:57;46.90;;;17.15;;
26271;SDS011;13997;48.902;12.472;2022-11-12T12:58:25;67.15;;;19.65;;
26271;SDS011;13997;48.902;12.472;2022-11-12T13:01:04;86.93;;;20.40;;
26271;SDS011;13997;48.902;12.472;2022-11-12T13:08:57;34.20;;;18.10;;
26271;SDS011;13997;48.902;12.472;2022-11-12T13:19:33;70.30;;;17.55;;
26271;SDS011;13997;48.902;12.472;2022-11-12T13:37:48;117.68;;;18.85;;
26271;SDS011;13997;48.902;12.472;2022-11-12T13:51:15;28.83;;;18.50;;
26271;SDS011;13997;48.902;12.472;2022-11-12T13:54:00;39.23;;;18.47;;
26271;SDS011;13997;48.902;12.472;2022-11-12T13:56:27;220.00;;;20.30;;
26271;SDS011;13997;48.902;12.472;2022-11-12T13:58:54;42.22;;;17.67;;
26271;SDS011;13997;48.902;12.472;2022-11-12T14:01:31;94.72;;;17.33;;
26271;SDS011;13997;48.902;12.472;2022-11-12T14:03:58;53.00;;;17.15;;
26271;SDS011;13997;48.902;12.472;2022-11-12T14:06:36;44.35;;;18.92;;
26271;SDS011;13997;48.902;12.472;2022-11-12T14:09:23;28.88;;;18.55;;
26271;SDS011;13997;48.902;12.472;2022-11-12T14:12:03;65.03;;;18.55;;
26271;SDS011;13997;48.902;12.472;2022-11-12T14:17:33;28.65;;;18.55;;
26271;SDS011;13997;48.902;12.472;2022-11-12T14:20:27;163.27;;;22.77;;
26271;SDS011;13997;48.902;12.472;2022-11-12T14:23:02;29.33;;;19.15;;
26271;SDS011;13997;48.902;12.472;2022-11-12T14:25:34;54.45;;;19.98;;
26271;SDS011;13997;48.902;12.472;2022-11-12T14:28:23;119.03;;;20.88;;
26271;SDS011;13997;48.902;12.472;2022-11-12T14:30:54;124.18;;;18.40;;
26271;SDS011;13997;48.902;12.472;2022-11-12T14:33:21;142.38;;;22.35;;
26271;SDS011;13997;48.902;12.472;2022-11-12T14:35:50;43.05;;;26.73;;
26271;SDS011;13997;48.902;12.472;2022-11-12T14:38:19;36.88;;;22.90;;
26271;SDS011;13997;48.902;12.472;2022-11-12T14:40:50;37.92;;;21.27;;
26271;SDS011;13997;48.902;12.472;2022-11-12T14:43:35;57.97;;;18.48;;
26271;SDS011;13997;48.902;12.472;2022-11-12T14:46:06;37.63;;;20.38;;
26271;SDS011;13997;48.902;12.472;2022-11-12T14:48:49;141.02;;;20.67;;
26271;SDS011;13997;48.902;12.472;2022-11-12T14:51:45;50.22;;;23.55;;
26271;SDS011;13997;48.902;12.472;2022-11-12T14:54:35;31.92;;;21.23;;
26271;SDS011;13997;48.902;12.472;2022-11-12T14:57:26;43.20;;;21.73;;
26271;SDS011;13997;48.902;12.472;2022-11-12T14:59:55;228.85;;;21.02;;
26271;SDS011;13997;48.902;12.472;2022-11-12T15:02:25;124.85;;;17.00;;
26271;SDS011;13997;48.902;12.472;2022-11-12T15:05:03;266.15;;;21.17;;
26271;SDS011;13997;48.902;12.472;2022-11-12T15:07:51;107.68;;;18.77;;
26271;SDS011;13997;48.902;12.472;2022-11-12T15:10:53;93.82;;;21.85;;
26271;SDS011;13997;48.902;12.472;2022-11-12T15:13:16;87.15;;;22.00;;
26271;SDS011;13997;48.902;12.472;2022-11-12T15:15:51;138.70;;;21.00;;
26271;SDS011;13997;48.902;12.472;2022-11-12T15:18:22;178.20;;;23.17;;
26271;SDS011;13997;48.902;12.472;2022-11-12T15:23:45;70.82;;;21.40;;
26271;SDS011;13997;48.902;12.472;2022-11-12T15:26:15;36.15;;;22.75;;
26271;SDS011;13997;48.902;12.472;2022-11-12T15:28:59;270.15;;;28.10;;
26271;SDS011;13997;48.902;12.472;2022-11-12T15:31:26;250.57;;;28.80;;
26271;SDS011;13997;48.902;12.472;2022-11-12T15:33:52;160.15;;;25.52;;
26271;SDS011;13997;48.902;12.472;2022-11-12T15:36:21;72.75;;;24.83;;
26271;SDS011;13997;48.902;12.472;2022-11-12T15:38:49;108.28;;;24.48;;
26271;SDS011;13997;48.902;12.472;2022-11-12T15:41:24;236.68;;;26.17;;
26271;SDS011;13997;48.902;12.472;2022-11-12T15:43:53;171.13;;;22.73;;
26271;SDS011;13997;48.902;12.472;2022-11-12T15:46:19;78.32;;;22.67;;
26271;SDS011;13997;48.902;12.472;2022-11-12T15:48:45;55.95;;;21.90;;
26271;SDS011;13997;48.902;12.472;2022-11-12T15:51:11;31.98;;;20.70;;
26271;SDS011;13997;48.902;12.472;2022-11-12T15:53:40;213.38;;;26.58;;
26271;SDS011;13997;48.902;12.472;2022-11-12T15:56:10;90.30;;;22.38;;
26271;SDS011;13997;48.902;12.472;2022-11-12T15:58:40;81.53;;;20.25;;
26271;SDS011;13997;48.902;12.472;2022-11-12T16:01:06;97.15;;;19.65;;
26271;SDS011;13997;48.902;12.472;2022-11-12T16:03:32;107.22;;;19.48;;
26271;SDS011;13997;48.902;12.472;2022-11-12T16:05:57;114.32;;;22.70;;
26271;SDS011;13997;48.902;12.472;2022-11-12T16:08:23;97.32;;;22.65;;
26271;SDS011;13997;48.902;12.472;2022-11-12T16:10:48;86.40;;;20.40;;
26271;SDS011;13997;48.902;12.472;2022-11-12T16:13:24;68.68;;;19.95;;
26271;SDS011;13997;48.902;12.472;2022-11-12T16:18:21;192.52;;;22.55;;
26271;SDS011;13997;48.902;12.472;2022-11-12T16:20:47;77.82;;;19.70;;
26271;SDS011;13997;48.902;12.472;2022-11-12T16:23:13;100.05;;;20.80;;
26271;SDS011;13997;48.902;12.472;2022-11-12T16:25:39;63.15;;;18.92;;
26271;SDS011;13997;48.902;12.472;2022-11-12T16:28:13;91.78;;;19.55;;
26271;SDS011;13997;48.902;12.472;2022-11-12T16:30:40;28.08;;;17.75;;
26271;SDS011;13997;48.902;12.472;2022-11-12T16:33:10;32.55;;;19.13;;
26271;SDS011;13997;48.902;12.472;2022-11-12T16:35:37;167.05;;;19.80;;
26271;SDS011;13997;48.902;12.472;2022-11-12T16:38:07;54.88;;;18.67;;
26271;SDS011;13997;48.902;12.472;2022-11-12T16:40:38;67.78;;;18.67;;
26271;SDS011;13997;48.902;12.472;2022-11-12T16:43:04;39.72;;;17.55;;
26271;SDS011;13997;48.902;12.472;2022-11-12T16:45:40;67.97;;;18.85;;
26271;SDS011;13997;48.902;12.472;2022-11-12T16:48:19;68.25;;;18.98;;
26271;SDS011;13997;48.902;12.472;2022-11-12T16:50:46;60.13;;;19.10;;
26271;SDS011;13997;48.902;12.472;2022-11-12T16:53:12;108.93;;;25.02;;
26271;SDS011;13997;48.902;12.472;2022-11-12T16:55:38;140.20;;;19.88;;
26271;SDS011;13997;48.902;12.472;2022-11-12T16:58:04;30.98;;;20.30;;
26271;SDS011;13997;48.902;12.472;2022-11-12T17:00:29;32.28;;;20.80;;
26271;SDS011;13997;48.902;12.472;2022-11-12T17:02:55;29.83;;;19.35;;
26271;SDS011;13997;48.902;12.472;2022-11-12T17:05:21;29.85;;;19.30;;
26271;SDS011;13997;48.902;12.472;2022-11-12T17:07:49;31.15;;;19.23;;
26271;SDS011;13997;48.902;12.472;2022-11-12T17:10:19;59.88;;;19.95;;
26271;SDS011;13997;48.902;12.472;2022-11-12T17:12:47;66.13;;;18.23;;
26271;SDS011;13997;48.902;12.472;2022-11-12T17:15:14;35.03;;;19.27;;
26271;SDS011;13997;48.902;12.472;2022-11-12T17:17:39;38.20;;;18.80;;
26271;SDS011;13997;48.902;12.472;2022-11-12T17:20:05;33.33;;;21.08;;
26271;SDS011;13997;48.902;12.472;2022-11-12T17:22:32;54.42;;;20.65;;
26271;SDS011;13997;48.902;12.472;2022-11-12T17:24:57;31.67;;;20.58;;
26271;SDS011;13997;48.902;12.472;2022-11-12T17:27:23;34.60;;;21.55;;
26271;SDS011;13997;48.902;12.472;2022-11-12T17:29:49;52.63;;;23.13;;
26271;SDS011;13997;48.902;12.472;2022-11-12T17:32:14;147.60;;;29.77;;
26271;SDS011;13997;48.902;12.472;2022-11-12T17:34:40;181.88;;;32.13;;
26271;SDS011;13997;48.902;12.472;2022-11-12T17:37:05;45.58;;;24.63;;
26271;SDS011;13997;48.902;12.472;2022-11-12T17:39:31;117.18;;;20.80;;
26271;SDS011;13997;48.902;12.472;2022-11-12T17:41:57;33.70;;;21.23;;
26271;SDS011;13997;48.902;12.472;2022-11-12T17:44:22;39.83;;;22.23;;
26271;SDS011;13997;48.902;12.472;2022-11-12T17:46:48;99.13;;;21.38;;
26271;SDS011;13997;48.902;12.472;2022-11-12T17:49:14;38.40;;;22.67;;
26271;SDS011;13997;48.902;12.472;2022-11-12T17:51:40;37.13;;;22.35;;
26271;SDS011;13997;48.902;12.472;2022-11-12T17:54:06;33.67;;;20.77;;
26271;SDS011;13997;48.902;12.472;2022-11-12T17:56:32;33.63;;;20.85;;
26271;SDS011;13997;48.902;12.472;2022-11-12T17:58:58;31.85;;;20.27;;
26271;SDS011;13997;48.902;12.472;2022-11-12T18:01:25;27.48;;;18.10;;
26271;SDS011;13997;48.902;12.472;2022-11-12T18:03:52;151.05;;;19.55;;
26271;SDS011;13997;48.902;12.472;2022-11-12T18:06:21;23.42;;;15.82;;
26271;SDS011;13997;48.902;12.472;2022-11-12T18:08:46;23.92;;;16.38;;
26271;SDS011;13997;48.902;12.472;2022-11-12T18:11:16;21.85;;;15.20;;
26271;SDS011;13997;48.902;12.472;2022-11-12T18:13:41;54.50;;;15.15;;
26271;SDS011;13997;48.902;12.472;2022-11-12T18:16:20;66.63;;;15.60;;
26271;SDS011;13997;48.902;12.472;2022-11-12T18:18:48;26.80;;;16.70;;
26271;SDS011;13997;48.902;12.472;2022-11-12T18:21:14;31.52;;;17.30;;
26271;SDS011;13997;48.902;12.472;2022-11-12T18:23:41;61.75;;;19.90;;
26271;SDS011;13997;48.902;12.472;2022-11-12T18:26:08;155.55;;;21.73;;
26271;SDS011;13997;48.902;12.472;2022-11-12T18:28:37;102.00;;;24.52;;
26271;SDS011;13997;48.902;12.472;2022-11-12T18:31:04;44.92;;;18.63;;
26271;SDS011;13997;48.902;12.472;2022-11-12T18:33:31;26.60;;;18.55;;
26271;SDS011;13997;48.902;12.472;2022-11-12T18:38:27;188.85;;;26.65;;
26271;SDS011;13997;48.902;12.472;2022-11-12T18:41:06;228.50;;;22.20;;
26271;SDS011;13997;48.902;12.472;2022-11-12T18:43:36;29.52;;;19.63;;
26271;SDS011;13997;48.902;12.472;2022-11-12T18:46:02;26.92;;;18.55;;
26271;SDS011;13997;48.902;12.472;2022-11-12T18:48:35;93.97;;;19.80;;
26271;SDS011;13997;48.902;12.472;2022-11-12T18:53:32;26.90;;;18.35;;
26271;SDS011;13997;48.902;12.472;2022-11-12T18:55:59;27.92;;;19.00;;
26271;SDS011;13997;48.902;12.472;2022-11-12T19:01:00;24.38;;;16.70;;
26271;SDS011;13997;48.902;12.472;2022-11-12T19:03:30;84.30;;;15.90;;
26271;SDS011;13997;48.902;12.472;2022-11-12T19:05:56;246.15;;;17.80;;
26271;SDS011;13997;48.902;12.472;2022-11-12T19:08:23;167.35;;;14.85;;
26271;SDS011;13997;48.902;12.472;2022-11-12T19:10:55;72.35;;;14.95;;
26271;SDS011;13997;48.902;12.472;2022-11-12T19:13:25;33.00;;;13.68;;
26271;SDS011;13997;48.902;12.472;2022-11-12T19:15:51;21.30;;;15.05;;
26271;SDS011;13997;48.902;12.472;2022-11-12T19:18:17;21.50;;;15.30;;
26271;SDS011;13997;48.902;12.472;2022-11-12T19:20:42;30.13;;;16.45;;
26271;SDS011;13997;48.902;12.472;2022-11-12T19:23:08;23.10;;;15.85;;
26271;SDS011;13997;48.902;12.472;2022-11-12T19:25:34;23.90;;;15.85;;
26271;SDS011;13997;48.902;12.472;2022-11-12T19:27:59;30.17;;;15.70;;
26271;SDS011;13997;48.902;12.472;2022-11-12T19:30:25;22.23;;;15.40;;
26271;SDS011;13997;48.902;12.472;2022-11-12T19:32:51;23.90;;;14.32;;
26271;SDS011;13997;48.902;12.472;2022-11-12T19:35:17;18.63;;;13.85;;
26271;SDS011;13997;48.902;12.472;2022-11-12T19:37:43;19.50;;;13.82;;
26271;SDS011;13997;48.902;12.472;2022-11-12T19:40:08;21.48;;;15.13;;
26271;SDS011;13997;48.902;12.472;2022-11-12T19:42:35;20.88;;;14.90;;
26271;SDS011;13997;48.902;12.472;2022-11-12T19:45:01;21.13;;;14.93;;
26271;SDS011;13997;48.902;12.472;2022-11-12T19:47:27;44.38;;;14.50;;
26271;SDS011;13997;48.902;12.472;2022-11-12T19:49:53;82.50;;;14.18;;
26271;SDS011;13997;48.902;12.472;2022-11-12T19:52:18;27.98;;;14.02;;
26271;SDS011;13997;48.902;12.472;2022-11-12T19:54:44;21.50;;;14.90;;
26271;SDS011;13997;48.902;12.472;2022-11-12T19:57:09;21.05;;;14.70;;
26271;SDS011;13997;48.902;12.472;2022-11-12T19:59:35;27.42;;;14.98;;
26271;SDS011;13997;48.902;12.472;2022-11-12T20:02:01;18.13;;;13.07;;
26271;SDS011;13997;48.902;12.472;2022-11-12T20:04:26;28.40;;;13.43;;
26271;SDS011;13997;48.902;12.472;2022-11-12T20:06:52;19.58;;;13.00;;
26271;SDS011;13997;48.902;12.472;2022-11-12T20:09:17;18.00;;;13.70;;
26271;SDS011;13997;48.902;12.472;2022-11-12T20:11:43;33.17;;;15.27;;
26271;SDS011;13997;48.902;12.472;2022-11-12T20:14:09;45.42;;;13.35;;
26271;SDS011;13997;48.902;12.472;2022-11-12T20:16:34;32.22;;;12.15;;
26271;SDS011;13997;48.902;12.472;2022-11-12T20:19:00;35.33;;;12.93;;
26271;SDS011;13997;48.902;12.472;2022-11-12T20:21:26;124.15;;;15.00;;
26271;SDS011;13997;48.902;12.472;2022-11-12T20:23:52;107.82;;;13.50;;
26271;SDS011;13997;48.902;12.472;2022-11-12T20:26:17;192.23;;;14.20;;
26271;SDS011;13997;48.902;12.472;2022-11-12T20:28:43;19.35;;;13.13;;
26271;SDS011;13997;48.902;12.472;2022-11-12T20:31:10;28.30;;;12.20;;
26271;SDS011;13997;48.902;12.472;2022-11-12T20:33:38;17.05;;;12.02;;
26271;SDS011;13997;48.902;12.472;2022-11-12T20:36:08;23.38;;;13.23;;
26271;SDS011;13997;48.902;12.472;2022-11-12T20:38:35;18.67;;;12.85;;
26271;SDS011;13997;48.902;12.472;2022-11-12T20:41:02;69.18;;;12.52;;
26271;SDS011;13997;48.902;12.472;2022-11-12T20:43:29;31.95;;;11.90;;
26271;SDS011;13997;48.902;12.472;2022-11-12T20:45:56;56.42;;;11.70;;
26271;SDS011;13997;48.902;12.472;2022-11-12T20:48:21;126.88;;;12.65;;
26271;SDS011;13997;48.902;12.472;2022-11-12T20:50:48;60.53;;;13.20;;
26271;SDS011;13997;48.902;12.472;2022-11-12T21:56:54;117.78;;;16.50;;
